CheckWX is a tool to help pilots better visualize weather data.  It is not intended as a substitute for an official pre-flight weather briefing.

09:04:58 UTC

KFOE METAR
Topeka Regional Airport
Topeka, Kansas, USA
Current

12 mins ago

KFOE 220853Z AUTO 10010KT 9SM CLR M01/M05 A3019 RMK AO2 SLP231 T10061050 58002
Observed
Feb-22 @ 08:53 UTC
Wind
  • 100° at 10 KTS
Visibility
9 SM
Flight Rules
VFR
Cloud Levels
  • Clear skies
Temperature
-1°C / 30°F
Dewpoint
-5°C / 23°F
Humidity
75%
Altimeter
30.19" Hg
Pressure
1023.1 hPa
Previous

1 hour ago

KFOE 220753Z AUTO 08008KT 10SM CLR M01/M05 A3019 RMK AO2 SLP231 T10061050
Observed
Feb-22 @ 07:53 UTC
Wind
  • 080° at 8 KTS
Visibility
10 SM
Flight Rules
VFR
Cloud Levels
  • Clear skies
Temperature
-1°C / 30°F
Dewpoint
-5°C / 23°F
Humidity
75%
Altimeter
30.19" Hg
Pressure
1023.1 hPa
Previous

2 hours ago

KFOE 220653Z AUTO 08008KT 10SM SCT110 00/M05 A3020 RMK AO2 SLP234 T00001050
Observed
Feb-22 @ 06:53 UTC
Wind
  • 080° at 8 KTS
Visibility
10 SM
Flight Rules
VFR
Cloud Levels
  • Scattered at 11,000' AGL
Temperature
C / 32°F
Dewpoint
-5°C / 23°F
Humidity
69%
Altimeter
30.2" Hg
Pressure
1023.4 hPa